Time;durP1;ratioP1;P1;durP2;ratioP2;P2;SDS_P1;SDS_P2;PMS_P1;PMS_P2;Temp;Humidity;BMP_temperature;BMP_pressure;BME280_temperature;BME280_humidity;BME280_pressure;Samples;Min_cycle;Max_cycle;Signal;HPM_P1;HPM_P2
2021/08/27 00:01:34;;;;;;;2.83;0.77;;;16.90;73.50;;;;;;5052757;28;20434;-74
2021/08/27 00:04:00;;;;;;;2.70;1.20;;;16.90;73.90;;;;;;5052690;28;20966;-74
2021/08/27 00:06:27;;;;;;;2.77;1.30;;;16.80;74.30;;;;;;5052975;28;20469;-74
2021/08/27 00:08:55;;;;;;;4.60;1.30;;;16.80;74.60;;;;;;5052968;28;20442;-74
2021/08/27 00:11:22;;;;;;;6.50;2.30;;;16.80;75.10;;;;;;5053186;28;20477;-74
2021/08/27 00:13:49;;;;;;;3.10;1.43;;;16.70;75.70;;;;;;5054014;28;20445;-74
2021/08/27 00:16:16;;;;;;;7.03;1.40;;;16.70;76.20;;;;;;5053738;28;20458;-74
2021/08/27 00:18:43;;;;;;;4.33;2.20;;;16.70;76.80;;;;;;5055523;28;20444;-75
2021/08/27 00:21:09;;;;;;;3.43;2.00;;;16.60;76.70;;;;;;5056574;28;20828;-74
2021/08/27 00:23:36;;;;;;;6.30;1.83;;;16.60;77.30;;;;;;5056478;28;20595;-74
2021/08/27 00:26:05;;;;;;;4.73;2.27;;;16.60;77.80;;;;;;5056566;28;20796;-74
2021/08/27 00:28:32;;;;;;;5.50;2.00;;;16.50;78.00;;;;;;5056438;28;20495;-74
2021/08/27 00:30:59;;;;;;;5.00;1.60;;;16.50;79.50;;;;;;5056046;28;20987;-74
2021/08/27 00:33:26;;;;;;;3.77;1.87;;;16.50;78.90;;;;;;5056339;28;20449;-74
2021/08/27 00:35:53;;;;;;;6.07;1.70;;;16.50;79.00;;;;;;5056403;28;20450;-75
2021/08/27 00:38:20;;;;;;;4.87;1.30;;;16.50;79.10;;;;;;5056651;28;20453;-74
2021/08/27 00:40:47;;;;;;;10.90;2.20;;;16.50;79.60;;;;;;5056242;28;20465;-74
2021/08/27 00:43:15;;;;;;;3.90;2.20;;;16.40;79.80;;;;;;5056120;28;20504;-74
2021/08/27 00:45:44;;;;;;;5.13;1.80;;;16.40;80.10;;;;;;5056402;28;20449;-74
2021/08/27 00:48:11;;;;;;;14.50;1.87;;;16.40;80.40;;;;;;5055739;28;20924;-74
2021/08/27 00:50:38;;;;;;;7.60;1.57;;;16.30;81.50;;;;;;5056067;28;20475;-74
2021/08/27 00:53:05;;;;;;;4.43;1.60;;;16.30;80.80;;;;;;5055937;28;20515;-74
2021/08/27 00:55:31;;;;;;;4.30;1.60;;;16.30;80.90;;;;;;5055992;28;20446;-74
2021/08/27 00:57:58;;;;;;;4.83;1.40;;;16.30;80.90;;;;;;5055990;28;20762;-74
2021/08/27 01:00:26;;;;;;;6.43;2.70;;;16.30;81.30;;;;;;5056081;28;20465;-74
2021/08/27 01:02:54;;;;;;;4.80;1.83;;;16.40;81.30;;;;;;5055756;28;20478;-74
2021/08/27 01:05:22;;;;;;;3.50;1.47;;;16.40;81.40;;;;;;5055747;28;20445;-74
2021/08/27 01:07:53;;;;;;;4.17;2.07;;;16.40;81.30;;;;;;5055363;28;20790;-74
2021/08/27 01:10:28;;;;;;;6.57;1.67;;;16.40;81.00;;;;;;5055481;28;20480;-74
2021/08/27 01:13:05;;;;;;;6.90;1.47;;;16.40;81.10;;;;;;5055664;28;20429;-74
2021/08/27 01:15:42;;;;;;;6.60;1.50;;;16.50;81.40;;;;;;5055323;28;20922;-74
2021/08/27 01:18:15;;;;;;;3.57;1.67;;;16.50;81.20;;;;;;5055791;28;20429;-75
2021/08/27 01:21:20;;;;;;;3.97;1.30;;;16.50;81.30;;;;;;5055121;28;20818;-74
2021/08/27 01:23:49;;;;;;;5.40;1.70;;;16.50;81.20;;;;;;5055068;28;21056;-74
2021/08/27 01:26:19;;;;;;;3.93;1.70;;;16.50;81.40;;;;;;5055089;28;20969;-74
2021/08/27 01:28:49;;;;;;;5.10;1.33;;;16.50;81.30;;;;;;5055311;28;20442;-74
2021/08/27 01:31:21;;;;;;;6.60;1.87;;;16.50;81.10;;;;;;5054656;28;20461;-74
2021/08/27 01:34:00;;;;;;;4.57;1.57;;;16.50;81.30;;;;;;5055263;28;20690;-74
2021/08/27 01:36:32;;;;;;;1.77;1.20;;;16.40;81.40;;;;;;5054964;28;20434;-74
2021/08/27 01:39:01;;;;;;;9.50;1.37;;;16.50;81.40;;;;;;5055187;28;20432;-74
2021/08/27 01:41:29;;;;;;;6.27;2.30;;;16.50;81.50;;;;;;5055036;28;20461;-74
2021/08/27 01:43:57;;;;;;;7.07;1.90;;;16.50;81.50;;;;;;5054638;28;20477;-74
2021/08/27 01:46:24;;;;;;;8.70;2.00;;;16.50;81.30;;;;;;5055077;28;20435;-74
2021/08/27 01:48:53;;;;;;;3.20;1.30;;;16.50;81.40;;;;;;5054933;28;20842;-74
2021/08/27 01:51:20;;;;;;;4.53;1.40;;;16.40;81.50;;;;;;5054786;28;20473;-74
2021/08/27 01:53:49;;;;;;;3.63;1.40;;;16.40;81.50;;;;;;5054874;28;20450;-74
2021/08/27 01:56:17;;;;;;;6.63;1.60;;;16.40;81.50;;;;;;5054817;28;20453;-74
2021/08/27 01:58:45;;;;;;;4.50;1.83;;;16.40;81.40;;;;;;5054713;28;20453;-74
2021/08/27 02:01:13;;;;;;;3.30;1.40;;;16.40;81.50;;;;;;5054639;28;20477;-74
2021/08/27 02:03:40;;;;;;;8.17;1.60;;;16.30;81.60;;;;;;5054709;28;20488;-74
2021/08/27 02:06:08;;;;;;;2.60;1.10;;;16.30;81.70;;;;;;5054277;28;20825;-74
2021/08/27 02:08:36;;;;;;;5.13;2.13;;;16.30;81.90;;;;;;5054574;28;20533;-74
2021/08/27 02:11:04;;;;;;;6.30;1.53;;;16.30;81.80;;;;;;5054185;28;20484;-74
2021/08/27 02:13:32;;;;;;;2.93;1.40;;;16.30;82.10;;;;;;5054142;28;20449;-74
2021/08/27 02:15:59;;;;;;;6.67;1.70;;;16.30;81.80;;;;;;5054571;28;20441;-74
2021/08/27 02:18:26;;;;;;;3.23;1.20;;;16.20;82.10;;;;;;5054355;28;20453;-74
2021/08/27 02:20:54;;;;;;;7.10;1.90;;;16.20;82.40;;;;;;5054268;28;20465;-74
2021/08/27 02:23:23;;;;;;;4.43;1.43;;;16.20;82.40;;;;;;5054109;28;20507;-74
2021/08/27 02:25:51;;;;;;;10.73;1.63;;;16.20;82.20;;;;;;5054220;28;20449;-74
2021/08/27 02:28:21;;;;;;;6.20;1.40;;;16.20;82.20;;;;;;5054248;28;20422;-74
2021/08/27 02:30:48;;;;;;;6.30;1.33;;;16.20;82.20;;;;;;5053745;28;20968;-74
2021/08/27 02:33:17;;;;;;;6.60;2.37;;;16.20;82.40;;;;;;5054078;28;20444;-73
2021/08/27 02:35:45;;;;;;;5.60;1.40;;;16.10;82.40;;;;;;5053764;28;20442;-74
2021/08/27 02:38:17;;;;;;;4.13;1.40;;;16.20;82.90;;;;;;5054004;28;20488;-74
2021/08/27 02:40:44;;;;;;;5.17;1.40;;;16.20;83.10;;;;;;5053970;28;20465;-74
2021/08/27 02:43:11;;;;;;;5.50;1.73;;;16.10;83.00;;;;;;5053253;28;20469;-75
2021/08/27 02:45:40;;;;;;;5.93;1.47;;;16.10;83.00;;;;;;5053966;28;20426;-74
2021/08/27 02:48:08;;;;;;;4.90;1.40;;;16.10;83.30;;;;;;5053497;28;20976;-74
2021/08/27 02:50:41;;;;;;;8.10;2.00;;;16.20;83.60;;;;;;5053697;28;20468;-74
2021/08/27 02:53:12;;;;;;;3.80;1.23;;;16.10;83.60;;;;;;5053789;28;20774;-74
2021/08/27 02:55:44;;;;;;;8.53;1.40;;;16.20;83.80;;;;;;5053780;28;20434;-74
2021/08/27 02:58:15;;;;;;;5.17;1.80;;;16.20;83.70;;;;;;5053735;28;20426;-74
2021/08/27 03:00:52;;;;;;;5.23;1.40;;;16.20;83.40;;;;;;5053632;28;20473;-74
2021/08/27 03:03:22;;;;;;;7.00;1.53;;;16.20;83.80;;;;;;5053843;28;20464;-74
2021/08/27 03:05:52;;;;;;;5.77;1.80;;;16.20;84.00;;;;;;5053588;28;20452;-74
2021/08/27 03:08:23;;;;;;;2.73;1.40;;;16.20;83.90;;;;;;5053557;28;20449;-74
2021/08/27 03:10:53;;;;;;;5.90;1.73;;;16.30;84.00;;;;;;5053031;28;20480;-74
2021/08/27 03:13:26;;;;;;;3.70;1.70;;;16.20;83.60;;;;;;5053138;28;20430;-74
2021/08/27 03:15:59;;;;;;;5.70;2.03;;;16.30;83.50;;;;;;5053427;28;20444;-74
2021/08/27 03:18:31;;;;;;;6.17;1.70;;;16.30;83.70;;;;;;5053681;28;20430;-74
2021/08/27 03:21:03;;;;;;;3.83;1.70;;;16.30;83.60;;;;;;5053384;28;20465;-74
2021/08/27 03:23:33;;;;;;;2.90;2.10;;;16.30;83.60;;;;;;5053321;28;20461;-74
2021/08/27 03:26:03;;;;;;;5.93;1.77;;;16.30;83.60;;;;;;5053426;28;20441;-74
2021/08/27 03:28:34;;;;;;;5.53;1.97;;;16.30;83.40;;;;;;5053752;28;20471;-74
2021/08/27 03:31:02;;;;;;;6.10;1.73;;;16.20;83.20;;;;;;5053596;28;20465;-74
2021/08/27 03:33:29;;;;;;;6.50;2.10;;;16.20;83.20;;;;;;5053067;28;20932;-74
2021/08/27 03:35:57;;;;;;;7.00;1.93;;;16.20;83.10;;;;;;5053326;28;20456;-74
2021/08/27 03:38:26;;;;;;;6.63;2.17;;;16.10;83.20;;;;;;5053278;28;20446;-74
2021/08/27 03:40:54;;;;;;;4.33;1.80;;;16.10;83.60;;;;;;5052849;28;20469;-74
2021/08/27 03:43:22;;;;;;;2.80;1.40;;;16.00;84.80;;;;;;5053211;28;20484;-74
2021/08/27 03:45:49;;;;;;;5.53;1.57;;;16.00;84.30;;;;;;5053245;28;20430;-74
2021/08/27 03:48:18;;;;;;;5.37;1.60;;;16.00;84.50;;;;;;5053186;28;20446;-74
2021/08/27 03:50:46;;;;;;;8.90;1.90;;;16.00;84.70;;;;;;5053210;28;20536;-74
2021/08/27 03:53:13;;;;;;;5.40;2.03;;;15.90;84.60;;;;;;5053515;28;20816;-74
2021/08/27 03:55:40;;;;;;;4.53;1.77;;;15.90;84.90;;;;;;5057053;28;20449;-74
2021/08/27 03:58:08;;;;;;;5.33;2.00;;;15.90;85.20;;;;;;5056647;28;20815;-74
2021/08/27 04:00:35;;;;;;;5.93;2.13;;;16.00;85.50;;;;;;5056947;28;20465;-74
2021/08/27 04:03:02;;;;;;;9.53;2.60;;;15.90;85.50;;;;;;5056855;28;20452;-74
2021/08/27 04:05:30;;;;;;;3.80;2.30;;;15.90;85.50;;;;;;5056882;28;20447;-74
2021/08/27 04:07:58;;;;;;;6.33;2.53;;;15.90;85.60;;;;;;5056478;28;20446;-74
2021/08/27 04:10:25;;;;;;;6.53;1.70;;;15.90;85.60;;;;;;5056327;28;20488;-74
2021/08/27 04:12:52;;;;;;;5.50;1.63;;;15.90;85.80;;;;;;5056891;28;20797;-74
2021/08/27 04:15:22;;;;;;;3.90;1.80;;;16.00;86.00;;;;;;5056667;28;20441;-74
2021/08/27 04:17:49;;;;;;;3.67;2.43;;;15.90;85.90;;;;;;5056711;28;20438;-74
2021/08/27 04:20:16;;;;;;;3.23;1.80;;;16.00;86.30;;;;;;5056577;28;20472;-74
2021/08/27 04:22:44;;;;;;;6.17;2.00;;;16.00;86.30;;;;;;5056524;28;20449;-74
2021/08/27 04:25:11;;;;;;;6.90;2.27;;;16.00;86.20;;;;;;5056170;28;20462;-74
2021/08/27 04:27:38;;;;;;;7.73;1.87;;;16.00;86.20;;;;;;5056456;28;20445;-74
2021/08/27 04:30:06;;;;;;;8.83;2.30;;;16.00;86.30;;;;;;5056335;28;20468;-74
2021/08/27 04:32:33;;;;;;;7.10;2.10;;;16.00;86.30;;;;;;5056334;28;20472;-74
2021/08/27 04:35:00;;;;;;;7.50;2.67;;;16.00;86.30;;;;;;5056332;28;20470;-74
2021/08/27 04:37:27;;;;;;;4.40;2.30;;;16.00;86.40;;;;;;5056529;28;20441;-74
2021/08/27 04:39:55;;;;;;;7.57;1.90;;;15.90;86.40;;;;;;5056224;28;20476;-74
2021/08/27 04:42:21;;;;;;;6.70;1.60;;;15.90;86.60;;;;;;5056442;28;20471;-74
2021/08/27 04:44:48;;;;;;;3.83;2.13;;;15.90;86.80;;;;;;5056028;28;20477;-74
2021/08/27 04:47:15;;;;;;;2.30;1.93;;;15.90;86.70;;;;;;5056231;28;20787;-74
2021/08/27 04:49:42;;;;;;;7.90;2.10;;;15.90;86.70;;;;;;5056047;28;20468;-74
2021/08/27 04:52:09;;;;;;;5.30;2.23;;;15.90;86.90;;;;;;5055732;28;20958;-73
2021/08/27 04:54:35;;;;;;;6.57;2.90;;;15.80;86.90;;;;;;5055977;28;20429;-73
2021/08/27 04:57:04;;;;;;;8.93;1.77;;;15.80;87.40;;;;;;5055955;28;20457;-72
2021/08/27 04:59:31;;;;;;;3.30;1.90;;;15.80;87.60;;;;;;5055811;28;20476;-73
2021/08/27 05:01:59;;;;;;;7.37;2.13;;;15.80;87.70;;;;;;5055844;28;20445;-73
2021/08/27 05:04:27;;;;;;;8.37;2.30;;;15.80;88.10;;;;;;5055111;28;20484;-73
2021/08/27 05:06:55;;;;;;;9.23;2.73;;;15.80;88.30;;;;;;5055305;28;20448;-73
2021/08/27 05:09:21;;;;;;;7.27;2.67;;;15.80;88.60;;;;;;5055644;28;20429;-73
2021/08/27 05:11:48;;;;;;;6.93;1.73;;;15.90;88.70;;;;;;5055577;28;20459;-73
2021/08/27 05:14:16;;;;;;;8.20;2.13;;;15.90;88.80;;;;;;5055126;28;20931;-73
2021/08/27 05:16:43;;;;;;;5.27;2.13;;;15.80;88.70;;;;;;5055052;28;20928;-73
2021/08/27 05:19:10;;;;;;;5.37;2.37;;;15.80;88.70;;;;;;5055416;28;20437;-73
2021/08/27 05:21:37;;;;;;;4.97;2.20;;;15.90;88.70;;;;;;5055494;28;20434;-73
2021/08/27 05:24:04;;;;;;;5.30;2.20;;;15.90;88.60;;;;;;5054999;28;20524;-73
2021/08/27 05:26:31;;;;;;;5.60;2.10;;;15.90;88.50;;;;;;5055137;28;21019;-73
2021/08/27 05:28:58;;;;;;;3.43;2.03;;;15.90;88.20;;;;;;5055332;28;20815;-73
2021/08/27 05:31:27;;;;;;;6.97;2.20;;;16.00;88.60;;;;;;5055159;28;20466;-73
2021/08/27 05:33:53;;;;;;;4.13;2.20;;;16.00;88.50;;;;;;5054800;28;20805;-73
2021/08/27 05:36:20;;;;;;;9.40;3.03;;;16.10;88.60;;;;;;5055181;28;20445;-73
2021/08/27 05:38:47;;;;;;;8.60;2.47;;;16.00;88.60;;;;;;5055146;28;20454;-73
2021/08/27 05:41:14;;;;;;;6.60;1.93;;;16.10;88.70;;;;;;5054994;28;20473;-73
2021/08/27 05:43:41;;;;;;;5.40;2.00;;;16.10;88.40;;;;;;5055008;28;20489;-73
2021/08/27 05:46:08;;;;;;;4.83;1.60;;;16.20;88.40;;;;;;5055013;28;20456;-73
2021/08/27 05:48:36;;;;;;;8.43;2.60;;;16.20;88.10;;;;;;5055680;28;20774;-73
2021/08/27 05:51:03;;;;;;;5.30;2.30;;;16.20;88.20;;;;;;5054471;28;21027;-73
2021/08/27 05:53:29;;;;;;;5.83;2.33;;;16.30;88.00;;;;;;5054875;28;20445;-73
2021/08/27 05:55:56;;;;;;;6.00;2.57;;;16.30;87.80;;;;;;5054629;28;20445;-73
2021/08/27 05:58:23;;;;;;;5.70;2.00;;;16.30;87.80;;;;;;5055056;28;20476;-73
2021/08/27 06:00:50;;;;;;;6.57;2.43;;;16.40;88.30;;;;;;5054689;28;20470;-73
2021/08/27 06:03:17;;;;;;;7.47;2.87;;;16.40;87.30;;;;;;5054561;28;20456;-73
2021/08/27 06:05:46;;;;;;;3.43;2.20;;;16.40;86.90;;;;;;5054499;28;20485;-73
2021/08/27 06:08:12;;;;;;;4.87;2.40;;;16.50;87.00;;;;;;5054563;28;20540;-73
2021/08/27 06:10:39;;;;;;;6.83;2.50;;;16.60;87.10;;;;;;5054318;28;20486;-73
2021/08/27 06:13:06;;;;;;;10.60;2.60;;;16.60;87.00;;;;;;5054415;28;20449;-73
2021/08/27 06:15:32;;;;;;;5.07;2.37;;;16.60;86.60;;;;;;5054624;28;20449;-73
2021/08/27 06:17:59;;;;;;;6.60;2.30;;;16.60;86.50;;;;;;5054250;28;20445;-73
2021/08/27 06:20:26;;;;;;;4.87;1.80;;;16.70;86.20;;;;;;5054289;28;20505;-73
2021/08/27 06:22:54;;;;;;;7.70;2.40;;;16.70;86.20;;;;;;5054104;28;20985;-73
2021/08/27 06:25:21;;;;;;;8.87;2.60;;;16.70;86.10;;;;;;5054186;28;20473;-73
2021/08/27 06:27:47;;;;;;;5.00;2.17;;;16.70;85.80;;;;;;5054105;28;20445;-73
2021/08/27 06:30:14;;;;;;;5.07;2.20;;;16.80;86.10;;;;;;5054322;28;20466;-73
2021/08/27 06:32:41;;;;;;;5.60;2.27;;;16.80;86.20;;;;;;5056468;28;20897;-73
2021/08/27 06:35:08;;;;;;;10.63;1.97;;;16.80;86.10;;;;;;5054482;28;20429;-72
2021/08/27 06:40:17;;;;;;;15.60;2.43;;;16.80;86.00;;;;;;5044518;28;20540;-73
2021/08/27 06:42:44;;;;;;;11.90;3.23;;;16.80;86.40;;;;;;5053645;28;20810;-73
2021/08/27 06:45:12;;;;;;;4.00;1.50;;;16.80;86.80;;;;;;5053786;28;20481;-73
2021/08/27 06:47:39;;;;;;;7.60;2.30;;;16.90;86.90;;;;;;5053807;28;20441;-73
2021/08/27 06:50:07;;;;;;;5.10;2.00;;;16.90;86.80;;;;;;5053626;28;20466;-73
2021/08/27 06:52:34;;;;;;;7.53;3.03;;;17.00;86.80;;;;;;5053828;28;20858;-73
2021/08/27 06:55:01;;;;;;;7.80;2.20;;;17.00;86.20;;;;;;5053741;28;20445;-73
2021/08/27 06:57:29;;;;;;;8.70;2.30;;;17.10;86.20;;;;;;5053726;28;20773;-72
2021/08/27 06:59:56;;;;;;;4.03;2.00;;;17.10;86.20;;;;;;5053884;28;20472;-73
2021/08/27 07:02:22;;;;;;;6.73;2.10;;;17.20;86.10;;;;;;5053604;28;20906;-76
2021/08/27 07:04:49;;;;;;;5.57;2.27;;;17.20;86.00;;;;;;5053272;28;20480;-76
2021/08/27 07:07:16;;;;;;;6.50;2.40;;;17.30;85.80;;;;;;5053389;28;20441;-76
2021/08/27 07:09:42;;;;;;;8.53;2.00;;;17.40;85.40;;;;;;5053556;28;20474;-76
2021/08/27 07:12:11;;;;;;;6.70;2.43;;;17.40;84.90;;;;;;5053091;28;20461;-76
2021/08/27 07:14:40;;;;;;;9.93;2.83;;;17.50;84.50;;;;;;5053525;28;20478;-75
2021/08/27 07:17:06;;;;;;;4.10;1.90;;;17.50;83.90;;;;;;5053471;28;20441;-76
2021/08/27 07:19:33;;;;;;;7.50;2.00;;;17.60;84.20;;;;;;5053055;28;20963;-76
2021/08/27 07:22:00;;;;;;;3.97;1.60;;;17.60;84.40;;;;;;5053378;28;20442;-76
2021/08/27 07:24:26;;;;;;;4.47;2.37;;;17.70;85.30;;;;;;5054233;28;20807;-76
2021/08/27 07:26:53;;;;;;;4.40;2.00;;;17.80;85.10;;;;;;5053402;28;20452;-76
2021/08/27 07:29:20;;;;;;;4.30;1.80;;;17.80;84.30;;;;;;5052397;28;20840;-76
2021/08/27 07:31:48;;;;;;;7.30;2.00;;;17.80;84.50;;;;;;5053717;28;20453;-76
2021/08/27 07:34:15;;;;;;;4.47;1.70;;;17.80;83.70;;;;;;5052956;28;20441;-76
2021/08/27 07:36:41;;;;;;;10.53;2.30;;;17.90;83.20;;;;;;5053283;28;20861;-76
2021/08/27 07:39:08;;;;;;;5.83;1.43;;;17.90;82.80;;;;;;5052987;28;20876;-76
2021/08/27 07:41:35;;;;;;;2.80;1.23;;;17.90;82.60;;;;;;5053115;28;20469;-76
2021/08/27 07:44:02;;;;;;;7.67;2.07;;;17.90;82.80;;;;;;5053314;28;20426;-76
2021/08/27 07:46:29;;;;;;;3.53;1.90;;;18.00;82.60;;;;;;5053040;28;20441;-76
2021/08/27 07:48:57;;;;;;;2.97;1.67;;;18.10;82.60;;;;;;5053503;28;20449;-77
2021/08/27 07:51:23;;;;;;;4.67;1.63;;;18.20;82.10;;;;;;5053018;28;20461;-76
2021/08/27 07:53:50;;;;;;;8.13;2.63;;;18.20;81.30;;;;;;5053004;28;20442;-76
2021/08/27 07:56:17;;;;;;;5.80;2.20;;;18.30;81.60;;;;;;5053110;28;20430;-77
2021/08/27 07:58:44;;;;;;;2.33;1.27;;;18.40;80.90;;;;;;5053452;28;20429;-77
2021/08/27 08:01:10;;;;;;;4.47;1.63;;;18.50;81.00;;;;;;5052644;28;20476;-77
2021/08/27 08:03:37;;;;;;;4.70;1.77;;;18.50;80.20;;;;;;5052998;28;20456;-77
2021/08/27 08:06:05;;;;;;;2.90;1.97;;;18.60;79.20;;;;;;5053010;28;20462;-76
2021/08/27 08:08:32;;;;;;;7.43;2.00;;;18.70;80.00;;;;;;5052857;28;20445;-76
2021/08/27 08:10:59;;;;;;;3.93;1.33;;;18.70;79.10;;;;;;5052547;28;20485;-76
2021/08/27 08:13:25;;;;;;;2.77;1.50;;;18.80;79.30;;;;;;5052830;28;20468;-76
2021/08/27 08:15:52;;;;;;;3.60;2.10;;;18.80;78.70;;;;;;5052791;28;20428;-76
2021/08/27 08:18:19;;;;;;;4.60;2.03;;;18.90;79.00;;;;;;5052754;28;20449;-76
2021/08/27 08:20:45;;;;;;;5.47;1.90;;;19.00;78.90;;;;;;5052794;28;20481;-76
2021/08/27 08:23:14;;;;;;;5.70;1.90;;;19.00;77.50;;;;;;5052563;28;20932;-76
2021/08/27 08:25:40;;;;;;;2.60;1.10;;;19.10;77.80;;;;;;5052397;28;20838;-76
2021/08/27 08:28:09;;;;;;;9.10;1.73;;;19.40;79.10;;;;;;5052526;28;20927;-76
2021/08/27 08:30:37;;;;;;;3.27;1.57;;;19.60;77.10;;;;;;5052386;28;20469;-76
2021/08/27 08:33:03;;;;;;;3.50;1.57;;;19.90;75.70;;;;;;5052689;28;20540;-76
2021/08/27 08:35:30;;;;;;;2.20;1.13;;;20.20;74.70;;;;;;5052626;28;20801;-76
2021/08/27 08:37:57;;;;;;;3.90;2.10;;;20.40;74.10;;;;;;5052535;28;20446;-76
2021/08/27 08:40:25;;;;;;;3.93;2.23;;;20.60;72.60;;;;;;5053463;28;20469;-76
2021/08/27 08:42:51;;;;;;;2.70;1.53;;;20.60;71.60;;;;;;5056246;28;20441;-77
2021/08/27 08:45:18;;;;;;;6.10;1.57;;;20.60;70.70;;;;;;5056151;28;20489;-76
2021/08/27 08:47:48;;;;;;;2.13;1.60;;;20.60;70.80;;;;;;5056177;28;20437;-76
2021/08/27 08:50:17;;;;;;;3.10;1.40;;;20.70;71.40;;;;;;5055749;28;20832;-77
2021/08/27 08:52:44;;;;;;;3.33;1.80;;;20.80;71.00;;;;;;5056148;28;20426;-76
2021/08/27 08:55:11;;;;;;;6.17;2.13;;;20.90;71.10;;;;;;5056103;28;20446;-76
2021/08/27 08:57:39;;;;;;;5.10;1.80;;;21.00;70.60;;;;;;5055551;28;20442;-76
2021/08/27 09:00:07;;;;;;;6.93;1.63;;;21.10;70.00;;;;;;5055844;28;20465;-76
2021/08/27 09:02:34;;;;;;;6.67;2.00;;;21.20;69.40;;;;;;5055879;28;20437;-76
2021/08/27 09:05:00;;;;;;;4.77;1.87;;;21.20;68.20;;;;;;5055775;28;20484;-76
2021/08/27 09:07:28;;;;;;;2.60;1.40;;;21.20;67.70;;;;;;5055823;28;20813;-76
2021/08/27 09:09:54;;;;;;;4.80;1.60;;;21.00;67.70;;;;;;5055356;28;20469;-76
2021/08/27 09:12:24;;;;;;;3.03;1.23;;;20.90;68.90;;;;;;5055828;28;20437;-76
2021/08/27 09:15:01;;;;;;;3.90;1.83;;;20.80;68.90;;;;;;5056251;28;20426;-76
2021/08/27 09:17:30;;;;;;;2.30;1.10;;;20.70;69.00;;;;;;5055899;28;20445;-76
2021/08/27 09:19:57;;;;;;;5.17;1.40;;;20.80;70.00;;;;;;5055533;28;20468;-76
2021/08/27 09:22:25;;;;;;;4.93;1.77;;;21.00;70.30;;;;;;5055557;28;20438;-76
2021/08/27 09:25:06;;;;;;;4.83;1.60;;;21.40;71.20;;;;;;5055122;28;20461;-77
2021/08/27 09:27:35;;;;;;;3.17;1.33;;;21.90;70.40;;;;;;5055067;28;20992;-76
2021/08/27 09:30:10;;;;;;;3.20;1.00;;;22.30;65.20;;;;;;5054832;28;20476;-76
2021/08/27 09:32:37;;;;;;;4.80;1.50;;;22.60;64.40;;;;;;5055117;28;20457;-76
2021/08/27 09:35:10;;;;;;;5.13;1.87;;;22.80;63.10;;;;;;5055231;28;20426;-77
2021/08/27 09:37:41;;;;;;;4.13;1.70;;;23.00;61.50;;;;;;5055281;28;20541;-76
2021/08/27 09:40:10;;;;;;;5.73;1.90;;;22.90;59.80;;;;;;5055103;28;20469;-76
2021/08/27 09:42:38;;;;;;;3.97;2.23;;;22.80;60.60;;;;;;5055053;28;20426;-76
2021/08/27 09:45:08;;;;;;;4.57;1.57;;;22.60;59.80;;;;;;5054679;28;21002;-76
2021/08/27 09:47:35;;;;;;;3.23;1.50;;;22.50;60.40;;;;;;5055011;28;20434;-76
2021/08/27 09:50:20;;;;;;;4.40;1.63;;;22.30;60.70;;;;;;5054995;28;20464;-76
2021/08/27 09:52:52;;;;;;;6.90;1.50;;;22.30;61.40;;;;;;5055063;28;20458;-76
2021/08/27 09:55:19;;;;;;;3.80;1.67;;;22.40;61.50;;;;;;5054884;28;20421;-77
2021/08/27 09:57:46;;;;;;;3.80;1.40;;;22.60;60.90;;;;;;5054936;28;20425;-76
2021/08/27 10:00:19;;;;;;;6.17;1.87;;;22.90;60.40;;;;;;5054867;28;20826;-76
2021/08/27 10:02:47;;;;;;;3.07;1.13;;;22.90;59.70;;;;;;5054732;28;20437;-76
2021/08/27 10:05:14;;;;;;;6.33;2.00;;;23.00;59.80;;;;;;5054531;28;20523;-76
2021/08/27 10:07:41;;;;;;;6.90;2.50;;;23.20;59.30;;;;;;5054612;28;20441;-76
2021/08/27 10:10:11;;;;;;;5.27;2.23;;;23.50;58.90;;;;;;5054206;28;20528;-76
2021/08/27 10:12:39;;;;;;;5.20;2.20;;;23.80;58.30;;;;;;5054637;28;20928;-76
2021/08/27 10:15:08;;;;;;;5.13;1.43;;;24.30;58.00;;;;;;5054486;28;20464;-77
2021/08/27 10:17:37;;;;;;;6.30;2.17;;;24.60;55.50;;;;;;5054568;28;20507;-76
2021/08/27 10:20:05;;;;;;;2.60;1.10;;;24.80;55.30;;;;;;5054137;28;21051;-77
2021/08/27 10:22:31;;;;;;;4.33;1.60;;;24.90;54.30;;;;;;5055038;28;20497;-77
2021/08/27 10:25:04;;;;;;;6.40;1.87;;;24.90;54.20;;;;;;5054304;28;20547;-77
2021/08/27 10:27:32;;;;;;;4.23;1.60;;;24.90;53.50;;;;;;5054588;28;20433;-77
2021/08/27 10:29:59;;;;;;;8.47;2.13;;;24.70;53.60;;;;;;5053997;28;20979;-76
2021/08/27 10:32:50;;;;;;;4.03;1.70;;;24.40;54.00;;;;;;5054228;28;20441;-76
2021/08/27 10:35:47;;;;;;;2.03;1.10;;;24.10;54.80;;;;;;5054233;28;20438;-76
2021/08/27 10:38:44;;;;;;;6.10;1.50;;;24.00;55.40;;;;;;5054102;28;20449;-76
2021/08/27 10:41:14;;;;;;;8.00;1.67;;;23.90;54.60;;;;;;5054202;28;20457;-76
2021/08/27 10:43:57;;;;;;;5.10;1.40;;;23.70;53.80;;;;;;5053904;28;20806;-77
2021/08/27 10:47:04;;;;;;;8.13;1.97;;;23.50;53.70;;;;;;5054372;28;20493;-77
2021/08/27 10:50:00;;;;;;;2.50;1.03;;;23.60;54.20;;;;;;5054756;28;20484;-77
2021/08/27 10:52:34;;;;;;;3.23;1.20;;;24.60;53.30;;;;;;5054114;28;20434;-76
2021/08/27 10:55:09;;;;;;;4.63;1.30;;;25.50;52.10;;;;;;5054136;28;20429;-77
2021/08/27 10:57:45;;;;;;;6.07;1.10;;;26.40;50.00;;;;;;5054172;28;20920;-77
2021/08/27 11:00:12;;;;;;;3.90;0.80;;;27.20;47.10;;;;;;5054184;28;20555;-77
2021/08/27 11:02:52;;;;;;;2.77;1.20;;;26.80;45.70;;;;;;5053375;28;20453;-77
2021/08/27 11:05:35;;;;;;;2.67;1.00;;;26.20;46.60;;;;;;5053795;28;20465;-77
2021/08/27 11:08:06;;;;;;;3.00;1.20;;;25.60;48.10;;;;;;5053463;28;20436;-77
2021/08/27 11:10:35;;;;;;;7.30;1.10;;;25.00;49.10;;;;;;5053240;28;20473;-76
2021/08/27 11:13:07;;;;;;;5.07;1.77;;;24.60;51.30;;;;;;5053779;28;20449;-77
2021/08/27 11:15:36;;;;;;;3.43;1.47;;;24.30;52.30;;;;;;5053745;28;20794;-77
2021/08/27 11:18:13;;;;;;;4.13;1.50;;;24.20;53.00;;;;;;5053704;28;20454;-76
2021/08/27 11:20:42;;;;;;;3.50;1.13;;;24.20;52.30;;;;;;5053201;28;20471;-77
2021/08/27 11:23:09;;;;;;;4.30;1.30;;;24.30;53.10;;;;;;5053569;28;20452;-76
2021/08/27 11:25:40;;;;;;;1.87;1.00;;;24.80;52.80;;;;;;5053434;28;21009;-77
2021/08/27 11:28:15;;;;;;;4.60;1.30;;;25.10;50.60;;;;;;5053910;28;20528;-77
2021/08/27 11:30:46;;;;;;;2.10;0.80;;;25.30;50.00;;;;;;5053519;28;20464;-76
2021/08/27 11:33:51;;;;;;;3.87;1.40;;;25.30;49.90;;;;;;5053660;28;20430;-77
2021/08/27 11:36:21;;;;;;;3.60;1.40;;;25.50;50.20;;;;;;5053991;28;20436;-77
2021/08/27 11:38:56;;;;;;;2.60;0.97;;;25.50;49.30;;;;;;5053487;28;20896;-77
2021/08/27 11:41:24;;;;;;;7.13;1.20;;;25.50;49.70;;;;;;5053530;28;20468;-77
2021/08/27 11:44:07;;;;;;;2.30;1.40;;;25.40;49.30;;;;;;5053407;28;20430;-77
2021/08/27 11:46:36;;;;;;;2.73;1.23;;;25.30;50.40;;;;;;5053112;28;20469;-76
2021/08/27 11:49:14;;;;;;;3.23;1.00;;;24.90;50.20;;;;;;5053416;28;20430;-77
2021/08/27 11:51:47;;;;;;;3.43;1.17;;;24.50;51.10;;;;;;5052936;28;20456;-76
2021/08/27 11:54:18;;;;;;;5.20;1.77;;;24.10;51.40;;;;;;5053172;28;20430;-76
2021/08/27 11:56:49;;;;;;;4.53;1.70;;;23.60;54.60;;;;;;5053092;28;20437;-75
2021/08/27 11:59:21;;;;;;;2.67;1.70;;;23.20;57.70;;;;;;5052914;28;20436;-75
2021/08/27 12:01:48;;;;;;;3.83;1.40;;;22.80;60.00;;;;;;5053132;28;20433;-76
2021/08/27 12:04:23;;;;;;;3.73;1.83;;;22.50;61.70;;;;;;5053113;28;20425;-76
2021/08/27 12:07:04;;;;;;;2.63;1.37;;;22.40;63.20;;;;;;5053084;28;20556;-77
2021/08/27 12:09:31;;;;;;;4.30;1.50;;;22.50;65.60;;;;;;5053245;28;20923;-77
2021/08/27 12:11:57;;;;;;;2.90;1.77;;;22.60;64.60;;;;;;5053095;28;20458;-77
2021/08/27 12:14:49;;;;;;;3.97;1.33;;;23.10;67.20;;;;;;5054903;28;20923;-77
2021/08/27 12:17:24;;;;;;;2.80;1.30;;;24.20;63.00;;;;;;5058190;28;20464;-77
2021/08/27 12:19:52;;;;;;;3.90;2.00;;;25.20;58.80;;;;;;5057701;28;20535;-77
2021/08/27 12:22:21;;;;;;;4.10;2.23;;;25.80;54.90;;;;;;5057423;28;20445;-77
2021/08/27 12:24:50;;;;;;;2.20;1.30;;;26.50;52.50;;;;;;5058020;28;20434;-77
2021/08/27 12:27:17;;;;;;;3.47;1.70;;;26.80;50.70;;;;;;5057624;28;20852;-77
2021/08/27 12:29:44;;;;;;;9.33;3.00;;;26.60;49.90;;;;;;5056306;28;20501;-75
2021/08/27 12:32:16;;;;;;;10.10;2.17;;;26.00;52.60;;;;;;5056456;28;20426;-75
2021/08/27 12:34:46;;;;;;;6.60;1.90;;;25.40;55.70;;;;;;5056460;28;20463;-76
2021/08/27 12:37:14;;;;;;;2.53;1.30;;;24.70;57.20;;;;;;5056113;28;20931;-76
2021/08/27 12:39:42;;;;;;;3.20;1.50;;;24.10;58.50;;;;;;5056266;28;20465;-75
2021/08/27 12:42:17;;;;;;;1.60;0.90;;;23.70;60.10;;;;;;5055998;28;20797;-75
2021/08/27 12:44:57;;;;;;;3.00;1.20;;;23.50;62.50;;;;;;5055973;28;20429;-75
2021/08/27 12:47:30;;;;;;;3.40;1.60;;;23.30;64.60;;;;;;5055931;28;20477;-76
2021/08/27 12:50:03;;;;;;;4.47;1.60;;;23.10;64.50;;;;;;5056166;28;20472;-76
2021/08/27 12:52:30;;;;;;;4.87;1.77;;;23.20;65.80;;;;;;5056772;28;20430;-77
2021/08/27 12:54:58;;;;;;;4.37;1.90;;;23.20;64.30;;;;;;5056918;28;20446;-77
2021/08/27 12:57:26;;;;;;;7.33;2.60;;;23.30;66.20;;;;;;5057310;28;20851;-77
2021/08/27 13:00:03;;;;;;;4.07;2.13;;;23.40;67.00;;;;;;5057262;28;20466;-77